Time;durP1;ratioP1;P1;durP2;ratioP2;P2;SDS_P1;SDS_P2;PMS_P1;PMS_P2;Temp;Humidity;BMP_temperature;BMP_pressure;BME280_temperature;BME280_humidity;BME280_pressure;Samples;Min_cycle;Max_cycle;Signal;HPM_P1;HPM_P2
2022/06/06 00:00:17;;;;;;;1.10;0.70;;;15.60;67.10;;;;;;4980988;28;20189;-47
2022/06/06 00:02:49;;;;;;;3.25;1.40;;;15.70;67.80;;;;;;4995260;28;20677;-45
2022/06/06 00:05:21;;;;;;;2.42;1.30;;;15.80;67.90;;;;;;4996001;28;20208;-46
2022/06/06 00:07:51;;;;;;;3.60;1.70;;;15.80;67.80;;;;;;4995805;28;20217;-45
2022/06/06 00:10:22;;;;;;;0.82;0.80;;;15.90;67.80;;;;;;4994848;28;20209;-51
2022/06/06 00:12:53;;;;;;;2.20;1.10;;;16.00;67.40;;;;;;4995730;28;20205;-46
2022/06/06 00:15:25;;;;;;;1.45;1.13;;;16.00;67.20;;;;;;4994753;28;20201;-45
2022/06/06 00:17:56;;;;;;;1.88;1.38;;;16.10;67.00;;;;;;4995193;28;20229;-46
2022/06/06 00:20:27;;;;;;;1.30;1.00;;;16.20;66.90;;;;;;4995267;28;20205;-46
2022/06/06 00:22:58;;;;;;;2.50;1.30;;;16.20;66.60;;;;;;4996099;28;20200;-48
2022/06/06 00:25:30;;;;;;;1.20;1.08;;;16.20;66.10;;;;;;4995001;28;20205;-53
2022/06/06 00:28:00;;;;;;;1.83;1.40;;;16.30;65.90;;;;;;4995804;28;20232;-59
2022/06/06 00:30:33;;;;;;;3.15;1.20;;;16.30;65.70;;;;;;4994764;28;20201;-47
2022/06/06 00:35:50;;;;;;;1.40;1.25;;;16.40;65.30;;;;;;4975244;28;20330;-46
2022/06/06 00:38:22;;;;;;;2.47;1.80;;;16.50;65.10;;;;;;4974830;28;20222;-45
2022/06/06 00:40:53;;;;;;;1.48;1.17;;;16.50;65.00;;;;;;4973556;28;20280;-49
2022/06/06 00:43:24;;;;;;;2.13;1.40;;;16.60;64.90;;;;;;4974034;28;20201;-52
2022/06/06 00:45:58;;;;;;;2.15;1.08;;;16.60;64.70;;;;;;4974879;28;20559;-45
2022/06/06 00:48:34;;;;;;;1.48;0.90;;;16.70;64.60;;;;;;4975115;28;20682;-45
2022/06/06 00:51:09;;;;;;;0.80;0.80;;;16.70;64.20;;;;;;4975311;28;20834;-46
2022/06/06 00:53:44;;;;;;;0.88;0.80;;;16.70;64.00;;;;;;4975072;28;20558;-48
2022/06/06 00:56:21;;;;;;;0.90;0.85;;;16.80;63.80;;;;;;4974994;28;20227;-48
2022/06/06 00:58:56;;;;;;;0.85;0.68;;;16.80;63.70;;;;;;4985720;28;20189;-50
2022/06/06 01:01:31;;;;;;;1.00;1.00;;;16.80;63.40;;;;;;4994507;28;20197;-45
2022/06/06 01:04:04;;;;;;;0.80;0.80;;;16.90;63.30;;;;;;4994296;28;20657;-46
2022/06/06 01:06:39;;;;;;;0.80;0.80;;;16.90;63.00;;;;;;4994758;28;20369;-46
2022/06/06 01:09:11;;;;;;;1.10;0.80;;;16.90;62.80;;;;;;4994365;28;20194;-49
2022/06/06 01:11:44;;;;;;;1.38;0.90;;;17.00;62.60;;;;;;4994455;28;20268;-46
2022/06/06 01:14:19;;;;;;;1.33;1.20;;;17.00;62.70;;;;;;4994852;28;20769;-55
2022/06/06 01:16:58;;;;;;;1.00;0.90;;;17.00;63.80;;;;;;4994484;28;20239;-49
2022/06/06 01:20:07;;;;;;;1.00;0.90;;;17.00;63.10;;;;;;4993236;28;20202;-49
2022/06/06 01:23:19;;;;;;;1.85;1.20;;;17.10;63.20;;;;;;4992963;28;20201;-51
2022/06/06 01:26:15;;;;;;;2.13;1.10;;;17.10;63.30;;;;;;4993838;28;20205;-49
2022/06/06 01:29:01;;;;;;;2.47;1.02;;;17.10;63.20;;;;;;4994520;28;20201;-58
2022/06/06 01:31:41;;;;;;;2.38;1.10;;;17.20;64.00;;;;;;4994052;28;20670;-47
2022/06/06 01:34:13;;;;;;;2.38;1.20;;;17.20;64.50;;;;;;4993546;28;20689;-58
2022/06/06 01:36:44;;;;;;;2.38;1.30;;;17.20;64.70;;;;;;4993500;28;20694;-49
2022/06/06 01:39:15;;;;;;;2.40;1.20;;;17.30;64.80;;;;;;4993689;28;20204;-48
2022/06/06 01:41:54;;;;;;;1.50;1.10;;;17.30;64.70;;;;;;4994458;28;20198;-48
2022/06/06 01:44:32;;;;;;;3.38;1.10;;;17.40;64.60;;;;;;4993797;28;20197;-55
2022/06/06 01:47:04;;;;;;;3.60;1.33;;;17.40;64.40;;;;;;4993405;28;20214;-47
2022/06/06 01:49:36;;;;;;;2.20;1.30;;;17.50;64.20;;;;;;4993424;28;20198;-48
2022/06/06 01:52:09;;;;;;;2.90;1.08;;;17.50;64.10;;;;;;4992659;28;20197;-47
2022/06/06 01:54:40;;;;;;;1.27;1.17;;;17.50;64.00;;;;;;4993363;28;20202;-52
2022/06/06 01:57:12;;;;;;;2.35;1.48;;;17.50;63.90;;;;;;4993502;28;20237;-50
2022/06/06 01:59:45;;;;;;;3.60;1.38;;;17.50;63.70;;;;;;4992852;28;20785;-52
2022/06/06 02:02:16;;;;;;;3.70;1.00;;;17.50;63.60;;;;;;4993273;28;20201;-50
2022/06/06 02:04:47;;;;;;;1.48;1.08;;;17.60;63.60;;;;;;4975659;28;20249;-57
2022/06/06 02:07:17;;;;;;;1.98;1.20;;;17.60;63.60;;;;;;4973316;28;21038;-48
2022/06/06 02:09:48;;;;;;;3.38;1.30;;;17.60;63.50;;;;;;4973043;28;20194;-50
2022/06/06 02:12:20;;;;;;;1.42;0.98;;;17.60;63.40;;;;;;4973576;28;20205;-54
2022/06/06 02:14:53;;;;;;;1.23;1.10;;;17.60;63.30;;;;;;4976197;28;20189;-58
2022/06/06 02:17:23;;;;;;;1.95;0.90;;;17.70;63.30;;;;;;4992837;28;20622;-47
2022/06/06 02:19:54;;;;;;;3.40;1.30;;;17.70;63.20;;;;;;4992386;28;20198;-59
2022/06/06 02:22:25;;;;;;;1.67;1.30;;;17.70;63.10;;;;;;4992350;28;20197;-58
2022/06/06 02:24:55;;;;;;;2.88;1.50;;;17.70;63.10;;;;;;4993436;28;20284;-51
2022/06/06 02:27:26;;;;;;;2.30;1.20;;;17.70;62.90;;;;;;4993238;28;20225;-51
2022/06/06 02:29:59;;;;;;;1.67;1.15;;;17.80;63.00;;;;;;4992724;28;20237;-57
2022/06/06 02:32:29;;;;;;;1.83;1.20;;;17.80;62.90;;;;;;4992142;28;20208;-46
2022/06/06 02:35:00;;;;;;;2.53;1.33;;;17.80;62.80;;;;;;4992903;28;20197;-47
2022/06/06 02:37:31;;;;;;;1.55;1.10;;;17.80;62.70;;;;;;4992762;28;20225;-49
2022/06/06 02:40:02;;;;;;;2.28;1.02;;;17.90;62.80;;;;;;4991973;28;20657;-47
2022/06/06 02:42:32;;;;;;;3.70;1.27;;;17.80;62.60;;;;;;4992314;28;20197;-52
2022/06/06 02:45:05;;;;;;;1.80;1.25;;;17.90;62.70;;;;;;4992091;28;20208;-50
2022/06/06 02:47:36;;;;;;;1.27;1.15;;;17.90;62.60;;;;;;4992215;28;20217;-55
2022/06/06 02:50:08;;;;;;;1.48;1.20;;;17.90;62.60;;;;;;4992123;28;20567;-47
2022/06/06 02:52:39;;;;;;;2.45;1.15;;;17.90;62.50;;;;;;4991757;28;20205;-47
2022/06/06 02:55:11;;;;;;;1.98;1.30;;;18.00;62.50;;;;;;4991942;28;20201;-47
2022/06/06 02:57:43;;;;;;;1.38;1.10;;;18.00;62.50;;;;;;4991164;28;20233;-46
2022/06/06 03:00:21;;;;;;;2.25;1.23;;;18.00;62.40;;;;;;4991661;28;20209;-59
2022/06/06 03:02:51;;;;;;;2.88;1.10;;;18.00;62.30;;;;;;4991669;28;20689;-50
2022/06/06 03:05:23;;;;;;;1.85;1.20;;;18.00;62.30;;;;;;4991804;28;20202;-48
2022/06/06 03:08:05;;;;;;;1.65;1.00;;;18.10;62.30;;;;;;4991663;28;20217;-47
2022/06/06 03:10:51;;;;;;;1.58;1.05;;;18.10;62.30;;;;;;4992030;28;20212;-47
2022/06/06 03:13:34;;;;;;;2.03;1.30;;;18.10;62.10;;;;;;4991608;28;20201;-57
2022/06/06 03:22:19;;;;;;;1.40;1.17;;;18.20;61.90;;;;;;4991441;28;20204;-46
2022/06/06 03:25:01;;;;;;;1.58;1.17;;;18.20;61.80;;;;;;4992044;28;20201;-50
2022/06/06 03:27:48;;;;;;;1.52;1.05;;;18.20;61.80;;;;;;4990904;28;20251;-58
2022/06/06 03:30:28;;;;;;;3.58;1.20;;;18.20;61.80;;;;;;4991686;28;20575;-48
2022/06/06 03:33:13;;;;;;;3.35;1.33;;;18.20;62.50;;;;;;4991694;28;20213;-48
2022/06/06 03:35:48;;;;;;;1.80;1.17;;;18.30;61.70;;;;;;4991334;28;20661;-47
2022/06/06 03:38:30;;;;;;;1.25;1.05;;;18.30;61.60;;;;;;4992076;28;20287;-47
2022/06/06 03:41:08;;;;;;;1.33;1.05;;;18.30;61.70;;;;;;4991414;28;20658;-49
2022/06/06 03:43:46;;;;;;;2.95;1.00;;;18.30;61.70;;;;;;4991681;28;20201;-47
2022/06/06 03:46:33;;;;;;;1.20;1.10;;;18.30;61.70;;;;;;4991410;28;20197;-46
2022/06/06 03:49:18;;;;;;;1.58;1.20;;;18.40;61.70;;;;;;4991557;28;20620;-47
2022/06/06 03:52:03;;;;;;;1.30;1.17;;;18.40;61.60;;;;;;4991563;28;20208;-48
2022/06/06 03:54:42;;;;;;;2.10;1.08;;;18.40;61.60;;;;;;4991306;28;20215;-50
2022/06/06 03:57:17;;;;;;;1.50;1.13;;;18.40;61.50;;;;;;4991580;28;20225;-47
2022/06/06 03:59:52;;;;;;;1.77;1.30;;;18.40;61.40;;;;;;4991715;28;20212;-46
2022/06/06 04:02:26;;;;;;;1.77;1.27;;;18.40;61.40;;;;;;4974231;28;20189;-47
2022/06/06 04:05:04;;;;;;;1.70;1.35;;;18.50;61.20;;;;;;4972502;28;20197;-47
2022/06/06 04:07:35;;;;;;;1.40;1.10;;;18.50;61.10;;;;;;4971898;28;20233;-47
2022/06/06 04:10:07;;;;;;;1.80;1.20;;;18.50;61.00;;;;;;4971687;28;20194;-47
2022/06/06 04:12:51;;;;;;;1.70;1.10;;;18.50;61.00;;;;;;4971743;28;20206;-50
2022/06/06 04:15:28;;;;;;;1.98;1.27;;;18.50;60.90;;;;;;4980386;28;20202;-46
2022/06/06 04:18:11;;;;;;;1.70;1.00;;;18.50;60.90;;;;;;4991725;28;20229;-48
2022/06/06 04:20:57;;;;;;;1.00;0.90;;;18.50;60.80;;;;;;4990838;28;20197;-47
2022/06/06 04:23:53;;;;;;;1.27;1.15;;;18.50;60.70;;;;;;4991863;28;20202;-47
2022/06/06 04:26:31;;;;;;;2.85;1.30;;;18.60;60.80;;;;;;4985782;28;20198;-51
2022/06/06 04:29:07;;;;;;;1.30;1.20;;;18.60;60.70;;;;;;4990589;28;20201;-47
2022/06/06 04:31:46;;;;;;;6.03;3.80;;;18.50;60.60;;;;;;4990685;28;20205;-47
2022/06/06 04:34:23;;;;;;;11.30;7.43;;;18.50;60.40;;;;;;4991604;28;20561;-52
2022/06/06 04:37:08;;;;;;;10.00;6.15;;;18.50;59.80;;;;;;4971099;28;20230;-50
2022/06/06 04:39:49;;;;;;;7.72;6.30;;;18.60;59.90;;;;;;4971987;28;20209;-48
2022/06/06 04:42:27;;;;;;;8.80;6.70;;;18.50;58.80;;;;;;4971545;28;20209;-46
2022/06/06 04:45:05;;;;;;;6.85;5.03;;;18.50;58.40;;;;;;4975715;28;20194;-53
2022/06/06 04:47:38;;;;;;;4.15;3.30;;;18.50;57.80;;;;;;4975601;28;20233;-49
2022/06/06 04:50:12;;;;;;;2.45;1.95;;;18.50;57.10;;;;;;4976420;28;20194;-52
2022/06/06 04:52:50;;;;;;;3.00;1.58;;;18.40;56.50;;;;;;4992095;28;20205;-55
2022/06/06 04:55:22;;;;;;;3.85;1.20;;;18.40;56.10;;;;;;4994903;28;20201;-58
2022/06/06 04:57:55;;;;;;;0.88;0.63;;;18.40;55.70;;;;;;4994519;28;20255;-46
2022/06/06 05:00:26;;;;;;;2.85;0.80;;;18.40;55.30;;;;;;4994569;28;20198;-46
2022/06/06 05:02:57;;;;;;;1.70;1.20;;;18.40;55.30;;;;;;4995046;28;20206;-46
2022/06/06 05:05:44;;;;;;;3.28;1.40;;;18.30;55.00;;;;;;4989012;28;20194;-47
2022/06/06 05:08:31;;;;;;;19.00;4.70;;;18.30;54.70;;;;;;4974857;28;20229;-55
2022/06/06 05:11:15;;;;;;;11.80;3.72;;;18.30;54.10;;;;;;4973919;28;20228;-59
2022/06/06 05:14:08;;;;;;;8.30;2.00;;;18.30;53.80;;;;;;4974383;28;20206;-47
2022/06/06 05:17:15;;;;;;;6.63;1.52;;;18.30;53.40;;;;;;4991834;28;20230;-48
2022/06/06 05:20:03;;;;;;;2.92;1.52;;;18.30;53.40;;;;;;4961017;28;20216;-54
2022/06/06 05:22:54;;;;;;;1.35;0.70;;;18.30;53.30;;;;;;4993917;28;20201;-48
2022/06/06 05:25:42;;;;;;;2.72;1.10;;;18.20;52.80;;;;;;4992038;28;20201;-52
2022/06/06 05:28:33;;;;;;;0.60;0.50;;;18.20;52.20;;;;;;4987962;28;20221;-54
2022/06/06 05:31:16;;;;;;;1.67;0.70;;;18.20;51.90;;;;;;4993464;28;20202;-46
2022/06/06 05:33:52;;;;;;;1.95;0.70;;;18.10;51.80;;;;;;4994550;28;20220;-47
2022/06/06 05:36:36;;;;;;;2.40;0.75;;;18.10;51.40;;;;;;4993653;28;20227;-52
2022/06/06 05:39:43;;;;;;;0.68;0.50;;;18.10;51.20;;;;;;4992633;28;20229;-49
2022/06/06 05:42:36;;;;;;;3.03;0.90;;;18.00;50.90;;;;;;4977062;28;20205;-47
2022/06/06 05:45:18;;;;;;;2.30;0.80;;;18.00;50.80;;;;;;4993305;28;20650;-46
2022/06/06 05:48:00;;;;;;;1.20;0.77;;;17.90;50.70;;;;;;4992412;28;20225;-46
2022/06/06 05:50:50;;;;;;;1.63;0.90;;;17.90;50.60;;;;;;4992518;28;20193;-49
2022/06/06 05:53:40;;;;;;;3.53;1.20;;;17.80;50.30;;;;;;4976936;28;20674;-47
2022/06/06 05:56:36;;;;;;;2.33;1.20;;;17.80;50.10;;;;;;4972336;28;20198;-53
2022/06/06 05:59:32;;;;;;;2.13;1.17;;;17.70;49.90;;;;;;4973950;28;20230;-47
2022/06/06 06:02:17;;;;;;;2.08;1.10;;;17.70;49.80;;;;;;4973813;28;20662;-46
2022/06/06 06:05:06;;;;;;;9.65;7.18;;;17.60;49.70;;;;;;4973568;28;20198;-49
2022/06/06 06:07:44;;;;;;;10.50;6.50;;;17.60;53.10;;;;;;4973740;28;20222;-50
2022/06/06 06:10:20;;;;;;;10.65;6.00;;;17.60;55.10;;;;;;4973452;28;20198;-47
2022/06/06 06:13:24;;;;;;;11.27;6.45;;;17.70;56.00;;;;;;4973866;28;20194;-49
2022/06/06 06:16:02;;;;;;;16.63;7.78;;;17.70;56.60;;;;;;4986618;28;20201;-48
2022/06/06 06:18:38;;;;;;;12.57;7.32;;;17.80;57.00;;;;;;4993354;28;20232;-46
2022/06/06 06:21:15;;;;;;;10.00;6.97;;;17.90;57.40;;;;;;4993323;28;20205;-50
2022/06/06 06:23:52;;;;;;;11.05;6.53;;;17.90;57.60;;;;;;4992153;28;20201;-48
2022/06/06 06:26:23;;;;;;;17.48;7.18;;;18.00;57.80;;;;;;4992918;28;20193;-51
2022/06/06 06:28:55;;;;;;;15.73;6.95;;;18.00;57.90;;;;;;4992304;28;20685;-47
2022/06/06 06:31:42;;;;;;;13.60;7.20;;;18.10;58.00;;;;;;4993181;28;20198;-49
2022/06/06 06:34:28;;;;;;;16.27;7.13;;;18.10;58.10;;;;;;4992769;28;20217;-49
2022/06/06 06:37:09;;;;;;;10.40;6.70;;;18.20;58.10;;;;;;4993705;28;20217;-53
2022/06/06 06:39:57;;;;;;;9.32;6.55;;;18.20;58.70;;;;;;4992762;28;20205;-52
2022/06/06 06:42:39;;;;;;;12.73;6.80;;;18.30;58.10;;;;;;4992608;28;20685;-46
2022/06/06 06:45:15;;;;;;;13.05;6.90;;;18.30;58.00;;;;;;4992481;28;20205;-52
2022/06/06 06:47:54;;;;;;;8.95;6.55;;;18.30;58.00;;;;;;4992809;28;20216;-49
2022/06/06 06:50:32;;;;;;;9.65;6.05;;;18.40;58.00;;;;;;4992353;28;20784;-54
2022/06/06 06:53:12;;;;;;;12.35;6.43;;;18.40;57.90;;;;;;4992771;28;20193;-49
2022/06/06 06:55:49;;;;;;;12.82;6.43;;;18.40;57.90;;;;;;4991935;28;20684;-54
2022/06/06 06:58:39;;;;;;;14.70;6.47;;;18.50;58.00;;;;;;4991743;28;20233;-57
2022/06/06 07:01:13;;;;;;;9.98;5.85;;;18.50;58.00;;;;;;4972023;28;20206;-56
2022/06/06 07:09:55;;;;;;;8.35;5.20;;;18.60;57.70;;;;;;4972996;28;20205;-56
2022/06/06 07:12:40;;;;;;;7.05;5.22;;;18.50;57.50;;;;;;4972994;28;20202;-58
2022/06/06 07:15:20;;;;;;;7.85;5.43;;;18.60;57.50;;;;;;4972806;28;20209;-55
2022/06/06 07:17:54;;;;;;;7.15;5.20;;;18.50;57.40;;;;;;4975841;28;20228;-54
2022/06/06 07:20:28;;;;;;;8.68;5.20;;;18.50;57.40;;;;;;4992651;28;20200;-55
2022/06/06 07:23:02;;;;;;;7.43;5.32;;;18.50;57.30;;;;;;4992718;28;20205;-57
2022/06/06 07:25:37;;;;;;;9.18;5.78;;;18.50;57.30;;;;;;4992435;28;20294;-57
2022/06/06 07:28:09;;;;;;;6.50;5.63;;;18.40;57.30;;;;;;4991684;28;20221;-55
2022/06/06 07:30:44;;;;;;;9.00;5.55;;;18.40;57.20;;;;;;4991985;28;20197;-57
2022/06/06 07:33:53;;;;;;;6.10;5.13;;;18.40;57.20;;;;;;4991575;28;20205;-56
2022/06/06 07:36:38;;;;;;;9.23;5.65;;;18.40;57.20;;;;;;4932505;29;20243;-57
2022/06/06 07:39:20;;;;;;;7.43;4.80;;;18.30;57.10;;;;;;4971253;28;20230;-56
2022/06/06 07:42:05;;;;;;;6.55;4.88;;;18.30;57.10;;;;;;4972680;28;20202;-55
2022/06/06 07:44:50;;;;;;;6.63;5.00;;;18.30;57.10;;;;;;4974731;28;20690;-55
2022/06/06 07:47:32;;;;;;;6.80;4.70;;;18.30;57.20;;;;;;4972807;28;20584;-55
2022/06/06 07:50:06;;;;;;;7.93;4.85;;;18.20;57.20;;;;;;4992068;28;20301;-57
2022/06/06 07:52:45;;;;;;;6.93;5.00;;;18.20;57.20;;;;;;4992133;28;20196;-55
2022/06/06 07:55:31;;;;;;;6.57;5.03;;;18.10;57.10;;;;;;4991731;28;20197;-57
2022/06/06 07:58:10;;;;;;;6.35;4.72;;;18.10;57.10;;;;;;4991633;28;20229;-56
2022/06/06 08:00:41;;;;;;;7.95;5.53;;;18.10;57.10;;;;;;4992192;28;20332;-55
2022/06/06 08:03:19;;;;;;;6.40;4.80;;;18.10;57.10;;;;;;4991909;28;20197;-56
2022/06/06 08:06:20;;;;;;;8.45;4.80;;;18.00;57.10;;;;;;4991798;28;20548;-55
2022/06/06 08:09:19;;;;;;;6.78;4.60;;;18.00;57.10;;;;;;4991481;28;20201;-58
2022/06/06 08:12:14;;;;;;;5.53;4.55;;;18.00;57.10;;;;;;4975024;28;20653;-55
2022/06/06 08:15:03;;;;;;;7.20;4.93;;;18.00;57.20;;;;;;4991749;28;20201;-55
2022/06/06 08:17:49;;;;;;;5.43;4.20;;;17.90;57.20;;;;;;4991913;28;20304;-56
2022/06/06 08:20:27;;;;;;;6.30;4.53;;;17.90;57.20;;;;;;4976137;28;20571;-56
2022/06/06 08:23:02;;;;;;;6.18;4.50;;;17.80;57.20;;;;;;4976296;28;20208;-57
2022/06/06 08:25:38;;;;;;;5.32;4.10;;;17.80;57.20;;;;;;4975964;28;20201;-51
2022/06/06 08:28:09;;;;;;;7.80;4.28;;;17.80;57.50;;;;;;4975954;28;20631;-57
2022/06/06 08:30:41;;;;;;;7.63;4.70;;;17.80;58.80;;;;;;4975792;28;20209;-58
2022/06/06 08:33:12;;;;;;;9.52;4.70;;;17.80;59.00;;;;;;4977861;28;20198;-58
2022/06/06 08:35:52;;;;;;;6.18;4.45;;;17.80;58.80;;;;;;4995109;28;20668;-58
2022/06/06 08:38:34;;;;;;;4.70;3.60;;;17.80;58.70;;;;;;4995416;28;20229;-58
2022/06/06 08:41:55;;;;;;;7.70;4.20;;;17.70;58.50;;;;;;4995192;28;20193;-58
2022/06/06 08:44:37;;;;;;;7.32;4.55;;;17.70;58.40;;;;;;4940280;28;20204;-57
2022/06/06 08:47:14;;;;;;;4.88;3.60;;;17.70;58.40;;;;;;4995341;28;20217;-58
2022/06/06 08:53:35;;;;;;;5.18;3.47;;;17.70;58.20;;;;;;4994812;28;20264;-57
2022/06/06 08:56:45;;;;;;;5.38;3.75;;;17.60;58.10;;;;;;4995010;28;20197;-58
2022/06/06 08:59:49;;;;;;;6.78;4.18;;;17.60;58.10;;;;;;4994193;28;20225;-58
2022/06/06 09:02:50;;;;;;;6.78;3.70;;;17.60;58.00;;;;;;4994888;28;20197;-57
2022/06/06 09:06:01;;;;;;;5.05;3.38;;;17.50;58.00;;;;;;4994567;28;20200;-58
2022/06/06 09:09:18;;;;;;;4.60;3.72;;;17.50;58.00;;;;;;4994809;28;20822;-58
2022/06/06 09:12:30;;;;;;;6.20;4.30;;;17.50;57.90;;;;;;4995063;28;20208;-58
2022/06/06 09:15:41;;;;;;;4.65;3.47;;;17.40;57.90;;;;;;4975582;28;20216;-59
2022/06/06 09:18:42;;;;;;;5.85;3.58;;;17.40;57.90;;;;;;4952773;29;20222;-58
2022/06/06 09:21:41;;;;;;;5.45;3.72;;;17.40;58.10;;;;;;4989522;28;20197;-58
2022/06/06 09:24:56;;;;;;;4.90;3.20;;;17.30;58.10;;;;;;4993791;28;20206;-58
2022/06/06 09:28:11;;;;;;;5.18;3.80;;;17.30;58.10;;;;;;4974389;28;20249;-58
2022/06/06 09:31:18;;;;;;;6.35;3.40;;;17.30;58.10;;;;;;4973278;28;20284;-58
2022/06/06 09:34:17;;;;;;;5.10;3.35;;;17.20;58.10;;;;;;4970708;28;20198;-58
2022/06/06 09:37:05;;;;;;;4.75;3.67;;;17.20;58.10;;;;;;4987040;28;20217;-58
2022/06/06 09:39:52;;;;;;;4.65;2.95;;;17.20;58.10;;;;;;4974710;28;20261;-58
2022/06/06 09:42:40;;;;;;;4.80;3.13;;;17.20;58.10;;;;;;4974873;28;20198;-58
2022/06/06 09:45:29;;;;;;;4.47;3.22;;;17.20;58.20;;;;;;4974336;28;20202;-58
2022/06/06 09:48:31;;;;;;;4.90;3.40;;;17.10;58.10;;;;;;4974048;28;20313;-59
2022/06/06 09:51:37;;;;;;;4.63;3.05;;;17.10;58.10;;;;;;4973382;28;20249;-59
2022/06/06 10:00:44;;;;;;;4.70;3.22;;;17.00;58.10;;;;;;4973891;28;20702;-59
2022/06/06 10:03:52;;;;;;;4.35;3.28;;;17.00;58.10;;;;;;4973050;28;20208;-58
2022/06/06 10:06:54;;;;;;;4.53;3.38;;;17.00;58.10;;;;;;4958798;28;20544;-58
2022/06/06 10:10:05;;;;;;;4.43;2.90;;;17.00;58.10;;;;;;4964510;28;20201;-58
2022/06/06 10:13:09;;;;;;;3.38;2.63;;;16.90;58.10;;;;;;4969604;28;20195;-57
2022/06/06 10:15:55;;;;;;;5.63;3.13;;;16.90;58.70;;;;;;4973593;28;20198;-58
2022/06/06 10:18:58;;;;;;;4.15;2.65;;;16.90;59.10;;;;;;4973336;28;20221;-59
2022/06/06 10:21:58;;;;;;;4.75;2.92;;;16.90;59.20;;;;;;4973421;28;20243;-58
2022/06/06 10:24:48;;;;;;;3.03;2.50;;;16.90;58.90;;;;;;4974123;28;20670;-59
2022/06/06 10:27:31;;;;;;;5.22;3.00;;;16.90;58.90;;;;;;4973590;28;20222;-58
2022/06/06 10:30:18;;;;;;;3.28;2.35;;;16.80;58.80;;;;;;4972707;28;20195;-58
2022/06/06 10:33:10;;;;;;;3.97;2.53;;;16.80;58.80;;;;;;4972925;28;20194;-58
2022/06/06 10:36:00;;;;;;;6.57;2.75;;;16.80;58.70;;;;;;4973983;28;20213;-58
2022/06/06 10:38:48;;;;;;;4.05;2.72;;;16.80;58.70;;;;;;4973435;28;20222;-58
2022/06/06 10:41:35;;;;;;;3.53;2.70;;;16.80;58.70;;;;;;4972109;28;20261;-59
2022/06/06 10:44:36;;;;;;;4.10;3.03;;;16.80;58.70;;;;;;4972811;28;20213;-59
2022/06/06 10:47:20;;;;;;;3.40;2.60;;;16.80;58.60;;;;;;4972532;28;20591;-58
2022/06/06 10:50:01;;;;;;;5.30;2.83;;;16.80;58.60;;;;;;4980082;28;20194;-59
2022/06/06 10:53:00;;;;;;;4.75;2.92;;;16.70;58.50;;;;;;4992044;28;20197;-58
2022/06/06 10:56:05;;;;;;;4.20;2.80;;;16.70;58.50;;;;;;4972752;28;20198;-59
2022/06/06 10:59:25;;;;;;;3.65;2.63;;;16.70;58.50;;;;;;4965256;28;20585;-59
2022/06/06 11:02:26;;;;;;;3.28;2.50;;;16.70;58.50;;;;;;4912583;29;20204;-58
2022/06/06 11:05:36;;;;;;;3.20;2.45;;;16.60;58.40;;;;;;4972274;28;20201;-59
2022/06/06 11:08:35;;;;;;;4.15;2.83;;;16.60;58.50;;;;;;4973077;28;20218;-59
2022/06/06 11:11:45;;;;;;;3.35;2.70;;;16.60;58.50;;;;;;4970066;28;20194;-59
2022/06/06 11:14:26;;;;;;;3.67;2.20;;;16.60;58.50;;;;;;4952283;28;20201;-59
2022/06/06 11:17:25;;;;;;;5.20;2.65;;;16.60;58.50;;;;;;4971274;28;20265;-59
2022/06/06 11:20:33;;;;;;;3.13;2.55;;;16.60;58.50;;;;;;4971662;28;20221;-59
2022/06/06 11:23:09;;;;;;;3.13;2.35;;;16.50;58.50;;;;;;4949873;28;20212;-59
2022/06/06 11:25:50;;;;;;;2.95;2.38;;;16.50;58.50;;;;;;4990967;28;20203;-59
2022/06/06 11:28:53;;;;;;;2.42;2.08;;;16.50;58.50;;;;;;4991056;28;20701;-59
2022/06/06 11:31:52;;;;;;;3.00;2.35;;;16.50;58.50;;;;;;4940013;28;20599;-59
2022/06/06 11:35:02;;;;;;;4.20;2.28;;;16.50;58.50;;;;;;4990753;28;20198;-59
2022/06/06 11:38:24;;;;;;;3.58;2.50;;;16.50;58.40;;;;;;4951364;28;20225;-59
2022/06/06 11:41:24;;;;;;;2.75;1.88;;;16.40;58.40;;;;;;4985128;28;20249;-60
2022/06/06 11:44:12;;;;;;;3.83;2.63;;;16.40;58.30;;;;;;4971156;28;20210;-59
2022/06/06 11:47:34;;;;;;;2.17;1.98;;;16.40;58.30;;;;;;4971089;28;20702;-59
2022/06/06 11:50:30;;;;;;;2.92;2.45;;;16.40;58.40;;;;;;4948220;28;20535;-59
2022/06/06 11:53:29;;;;;;;2.90;2.08;;;16.40;58.40;;;;;;4985748;28;20217;-60
2022/06/06 11:56:14;;;;;;;4.35;2.25;;;16.30;58.40;;;;;;4990503;28;20197;-61
2022/06/06 11:59:29;;;;;;;2.13;1.90;;;16.30;58.40;;;;;;4989862;28;20193;-58
2022/06/06 12:02:35;;;;;;;4.00;2.28;;;16.30;58.40;;;;;;4990053;28;20653;-59
2022/06/06 12:05:38;;;;;;;2.28;1.80;;;16.30;58.40;;;;;;4990540;28;20201;-58
2022/06/06 12:08:41;;;;;;;3.70;2.25;;;16.30;58.40;;;;;;4983162;28;20308;-58
2022/06/06 12:11:54;;;;;;;2.40;1.90;;;16.30;58.40;;;;;;4990241;28;20204;-59
2022/06/06 12:15:03;;;;;;;2.50;2.08;;;16.20;58.40;;;;;;4990391;28;20216;-61
2022/06/06 12:17:48;;;;;;;2.85;2.10;;;16.20;58.30;;;;;;4990365;28;20229;-59
2022/06/06 12:20:43;;;;;;;2.22;2.03;;;16.30;58.40;;;;;;4990310;28;20225;-58
2022/06/06 12:23:20;;;;;;;2.58;1.90;;;16.20;58.30;;;;;;4990230;28;20197;-59
2022/06/06 12:26:18;;;;;;;2.50;1.83;;;16.20;58.30;;;;;;4990441;28;20208;-58
2022/06/06 12:29:20;;;;;;;2.88;1.83;;;16.20;58.30;;;;;;4990462;28;20193;-59
2022/06/06 12:32:07;;;;;;;2.78;2.13;;;16.20;58.30;;;;;;4983583;28;20197;-59
2022/06/06 12:34:43;;;;;;;2.58;1.95;;;16.20;58.30;;;;;;4990075;28;20204;-59
2022/06/06 12:37:20;;;;;;;3.78;1.98;;;16.20;58.90;;;;;;4990476;28;20221;-59
2022/06/06 12:40:03;;;;;;;2.40;1.92;;;16.10;58.30;;;;;;4990169;28;20236;-58
2022/06/06 12:42:44;;;;;;;2.13;1.80;;;16.20;58.40;;;;;;4990087;28;20248;-60
2022/06/06 12:46:00;;;;;;;2.25;1.92;;;16.10;58.30;;;;;;4990111;28;20233;-59
2022/06/06 12:48:50;;;;;;;3.08;1.70;;;16.10;58.30;;;;;;4989915;28;20724;-58
2022/06/06 12:51:27;;;;;;;2.15;1.92;;;16.10;58.20;;;;;;4989490;28;20208;-58
2022/06/06 12:55:16;;;;;;;1.58;1.48;;;16.10;58.30;;;;;;4990034;28;20201;-58
2022/06/06 12:57:30;;;;;;;2.30;1.90;;;16.10;58.20;;;;;;4988909;28;20741;-58
2022/06/06 13:00:08;;;;;;;2.53;1.80;;;16.10;58.20;;;;;;4989909;28;20236;-59
2022/06/06 13:03:04;;;;;;;3.10;1.60;;;16.10;58.20;;;;;;4989913;28;20201;-58
2022/06/06 13:05:44;;;;;;;3.03;1.88;;;16.10;58.20;;;;;;4992801;28;20201;-60
2022/06/06 13:08:30;;;;;;;2.03;1.75;;;16.10;58.20;;;;;;4993084;28;20218;-58
2022/06/06 13:11:25;;;;;;;2.05;1.85;;;16.10;58.20;;;;;;4993303;28;20202;-58
2022/06/06 13:14:14;;;;;;;2.00;1.40;;;16.00;58.10;;;;;;4984759;28;20216;-58
2022/06/06 13:17:05;;;;;;;2.25;1.70;;;16.00;58.70;;;;;;4992482;28;20221;-58
2022/06/06 13:19:50;;;;;;;2.45;1.75;;;16.00;58.10;;;;;;4992172;28;20229;-58
2022/06/06 13:22:36;;;;;;;2.00;1.65;;;16.00;58.10;;;;;;4991485;28;20220;-58
2022/06/06 13:25:18;;;;;;;2.47;2.00;;;16.00;58.10;;;;;;4991960;28;20194;-58
2022/06/06 13:28:01;;;;;;;3.28;1.90;;;16.00;58.10;;;;;;4991817;28;20681;-59
2022/06/06 13:30:39;;;;;;;2.08;1.63;;;16.00;58.10;;;;;;4991791;28;20201;-60
2022/06/06 13:33:29;;;;;;;2.25;1.63;;;16.00;58.10;;;;;;4991739;28;20249;-59
2022/06/06 13:36:10;;;;;;;1.98;1.77;;;15.90;58.00;;;;;;4984946;28;20370;-59
2022/06/06 13:39:00;;;;;;;2.33;1.70;;;15.90;58.00;;;;;;4988569;28;20588;-59
2022/06/06 13:41:45;;;;;;;1.73;1.50;;;15.90;58.00;;;;;;4992903;28;20225;-58
2022/06/06 13:44:41;;;;;;;1.63;1.50;;;15.90;58.00;;;;;;4992706;28;20646;-59
2022/06/06 13:47:23;;;;;;;2.35;1.75;;;15.90;57.90;;;;;;4991139;28;20214;-58
2022/06/06 13:50:09;;;;;;;2.70;1.75;;;15.90;57.90;;;;;;4992780;28;20202;-58
2022/06/06 13:53:01;;;;;;;2.58;1.77;;;15.90;57.90;;;;;;4992537;28;20329;-59
2022/06/06 13:55:35;;;;;;;2.10;1.60;;;15.90;57.90;;;;;;4992793;28;20204;-58
2022/06/06 13:58:36;;;;;;;1.77;1.58;;;15.80;57.90;;;;;;4992599;28;20705;-59
2022/06/06 14:01:16;;;;;;;1.70;1.35;;;15.80;57.90;;;;;;4992544;28;20304;-59
2022/06/06 14:04:04;;;;;;;2.00;1.48;;;15.80;57.90;;;;;;4992526;28;20224;-59
2022/06/06 14:06:52;;;;;;;2.80;1.60;;;15.80;57.90;;;;;;4992595;28;20221;-59
2022/06/06 14:09:39;;;;;;;1.58;1.48;;;15.80;57.90;;;;;;4992172;28;20198;-59
2022/06/06 14:12:43;;;;;;;2.08;1.25;;;15.80;57.90;;;;;;4992305;28;20723;-58
2022/06/06 14:15:16;;;;;;;1.85;1.50;;;15.80;57.90;;;;;;4981462;28;20208;-59
2022/06/06 14:17:54;;;;;;;1.73;1.40;;;15.80;57.90;;;;;;4991507;28;20779;-58
2022/06/06 14:20:34;;;;;;;1.70;1.40;;;15.80;58.00;;;;;;4991972;28;20689;-58
2022/06/06 14:23:22;;;;;;;1.45;1.30;;;15.70;57.90;;;;;;4991516;28;20611;-58
2022/06/06 14:25:56;;;;;;;1.92;1.50;;;15.70;57.90;;;;;;4991899;28;20197;-59
2022/06/06 14:28:30;;;;;;;1.95;1.58;;;15.70;57.80;;;;;;4992243;28;20243;-58
2022/06/06 14:31:02;;;;;;;2.03;1.70;;;15.70;57.80;;;;;;4991899;28;20208;-58
2022/06/06 14:33:35;;;;;;;1.50;1.40;;;15.70;57.80;;;;;;4991970;28;20229;-58
2022/06/06 14:36:21;;;;;;;1.65;1.30;;;15.70;57.80;;;;;;4992437;28;20181;-58
2022/06/06 14:38:58;;;;;;;2.00;1.55;;;15.70;58.40;;;;;;4991214;28;20202;-59